createdAt,value
2023-11-06T00:01:35.195Z,63.52
2023-11-06T00:06:38.240Z,63.42
2023-11-06T00:11:42.178Z,63.18
2023-11-06T00:16:44.951Z,63.49
2023-11-06T00:21:47.574Z,63.66
2023-11-06T00:26:50.194Z,63.37
2023-11-06T00:31:52.808Z,63.12
2023-11-06T00:36:55.620Z,63.49
2023-11-06T00:41:58.327Z,63.53
2023-11-06T00:47:01.004Z,63.56
2023-11-06T00:52:04.267Z,63.13
2023-11-06T00:57:06.994Z,63.93
2023-11-06T01:02:09.639Z,63.97
2023-11-06T01:07:12.332Z,63.72
2023-11-06T01:12:15.064Z,64.32
2023-11-06T01:17:17.837Z,64.94
2023-11-06T01:22:31.101Z,65.63
2023-11-06T01:27:41.894Z,66.29
2023-11-06T01:32:44.781Z,66.17
2023-11-06T01:37:48.485Z,66.25
2023-11-06T01:42:53.887Z,66.67
2023-11-06T01:47:56.757Z,66.88
2023-11-06T01:53:06.058Z,67.25
2023-11-06T01:58:08.753Z,66.89
2023-11-06T02:03:12.264Z,67.18
2023-11-06T02:08:17.679Z,67.42
2023-11-06T02:13:21.446Z,67.51
2023-11-06T02:18:24.200Z,67.57
2023-11-06T02:23:27.739Z,67.84
2023-11-06T02:28:30.620Z,68.02
2023-11-06T02:33:33.327Z,68.71
2023-11-06T02:38:37.562Z,68.61
2023-11-06T02:43:40.193Z,69.07
2023-11-06T02:48:43.321Z,69.07
2023-11-06T02:53:46.006Z,69.16
2023-11-06T02:58:48.715Z,69.41
2023-11-06T03:03:52.206Z,69.86
2023-11-06T03:08:55.720Z,70.19
2023-11-06T03:13:58.310Z,70.61
2023-11-06T03:19:00.996Z,71.31
2023-11-06T03:24:03.721Z,72.03
2023-11-06T03:29:06.551Z,72.60
2023-11-06T03:34:09.317Z,72.81
2023-11-06T03:39:11.950Z,73.41
2023-11-06T03:44:15.400Z,73.97
2023-11-06T03:49:18.124Z,73.96
2023-11-06T03:54:21.341Z,75.27
2023-11-06T03:59:23.924Z,75.40
2023-11-06T04:04:26.810Z,75.19
2023-11-06T04:09:29.445Z,75.86
2023-11-06T04:14:32.133Z,75.61
2023-11-06T04:19:34.880Z,76.43
2023-11-06T04:24:37.531Z,76.58
2023-11-06T04:29:40.103Z,76.78
2023-11-06T04:34:43.015Z,77.13
2023-11-06T04:39:45.635Z,76.42
2023-11-06T04:44:48.333Z,76.38
2023-11-06T04:49:51.105Z,76.17
2023-11-06T04:54:53.713Z,76.51
2023-11-06T04:59:56.473Z,76.75
2023-11-06T05:04:59.236Z,76.31
2023-11-06T05:10:02.360Z,76.79
2023-11-06T05:15:07.342Z,76.57
2023-11-06T05:20:11.435Z,76.41
2023-11-06T05:25:14.245Z,76.61
2023-11-06T05:30:16.912Z,76.19
2023-11-06T05:35:19.654Z,76.67
2023-11-06T05:40:22.410Z,76.49
2023-11-06T05:45:25.031Z,77.03
2023-11-06T05:50:27.717Z,76.84
2023-11-06T05:55:30.318Z,76.63
2023-11-06T06:00:32.962Z,76.97
2023-11-06T06:05:35.940Z,76.83
2023-11-06T06:10:38.754Z,76.40
2023-11-06T06:15:41.390Z,76.31
2023-11-06T06:20:44.045Z,76.08
2023-11-06T06:25:46.956Z,76.38
2023-11-06T06:30:50.050Z,75.88
2023-11-06T06:35:52.660Z,75.76
2023-11-06T06:40:55.721Z,76.18
2023-11-06T06:45:58.338Z,76.56
2023-11-06T06:51:02.788Z,75.91
2023-11-06T06:56:05.899Z,75.42
2023-11-06T07:01:09.680Z,75.58
2023-11-06T07:06:12.871Z,75.41
2023-11-06T07:11:15.651Z,76.07
2023-11-06T07:16:18.278Z,75.15
2023-11-06T07:21:20.878Z,75.50
2023-11-06T07:26:23.978Z,75.67
2023-11-06T07:31:26.656Z,76.19
2023-11-06T07:36:29.238Z,76.08
2023-11-06T07:41:31.921Z,76.50
2023-11-06T07:46:34.518Z,76.30
2023-11-06T07:51:37.103Z,76.01
2023-11-06T07:56:39.755Z,76.56
2023-11-06T08:01:42.613Z,75.96
2023-11-06T08:06:45.278Z,75.63
2023-11-06T08:11:50.243Z,75.78
2023-11-06T08:16:53.695Z,75.85
2023-11-06T08:21:58.945Z,75.39
2023-11-06T08:27:03.340Z,74.72
2023-11-06T08:32:06.486Z,74.90
2023-11-06T08:37:12.433Z,74.75
2023-11-06T08:42:16.598Z,74.10
2023-11-06T08:47:20.639Z,74.50
2023-11-06T08:52:23.486Z,73.83
2023-11-06T08:57:26.263Z,73.94
2023-11-06T09:02:29.219Z,73.99
2023-11-06T09:07:32.211Z,73.70
2023-11-06T09:12:35.038Z,73.61
2023-11-06T09:17:37.696Z,73.78
2023-11-06T09:22:42.116Z,73.87
2023-11-06T09:27:47.321Z,74.34
2023-11-06T09:32:52.345Z,74.22
2023-11-06T09:37:55.013Z,73.79
2023-11-06T09:42:57.852Z,74.52
2023-11-06T09:48:03.885Z,74.14
2023-11-06T09:53:06.932Z,74.60
2023-11-06T09:58:12.385Z,75.22
2023-11-06T10:03:16.198Z,74.42
2023-11-06T10:08:32.694Z,74.68
2023-11-06T10:13:55.437Z,74.51
2023-11-06T10:19:17.802Z,74.27
2023-11-06T10:24:20.559Z,74.56
2023-11-06T10:29:23.267Z,74.34
2023-11-06T10:34:28.572Z,74.63
2023-11-06T10:39:35.025Z,74.52
2023-11-06T10:44:39.200Z,74.07
2023-11-06T10:49:51.672Z,73.73
2023-11-06T10:54:57.837Z,74.09
2023-11-06T11:00:12.443Z,74.79
2023-11-06T11:05:34.959Z,75.28
2023-11-06T11:10:39.577Z,75.72
2023-11-06T11:15:44.305Z,75.69
2023-11-06T11:20:54.260Z,75.93
2023-11-06T11:26:05.688Z,76.44
2023-11-06T11:31:49.067Z,76.60
2023-11-06T11:36:51.828Z,77.24
2023-11-06T11:42:00.598Z,77.58
2023-11-06T11:47:05.608Z,77.96
2023-11-06T11:52:09.947Z,78.17
2023-11-06T11:57:13.022Z,78.50
2023-11-06T12:02:30.781Z,79.12
2023-11-06T12:07:41.858Z,78.94
2023-11-06T12:12:44.537Z,78.68
2023-11-06T12:17:47.518Z,79.30
2023-11-06T12:22:53.660Z,79.48
2023-11-06T12:28:02.948Z,79.69
2023-11-06T12:33:19.152Z,80.24
2023-11-06T12:38:37.181Z,80.52
2023-11-06T12:43:40.382Z,80.57
2023-11-06T13:59:30.235Z,81.00
2023-11-06T14:04:36.821Z,81.33
2023-11-06T14:09:48.178Z,80.40
2023-11-06T14:14:51.670Z,80.28
2023-11-06T14:19:54.376Z,79.97
2023-11-06T14:24:57.112Z,79.06
2023-11-06T14:30:01.109Z,78.94
2023-11-06T14:35:05.029Z,79.09
2023-11-06T14:40:14.930Z,79.34
2023-11-06T14:45:19.433Z,79.37
2023-11-06T14:50:22.105Z,78.41
2023-11-06T14:55:25.206Z,77.68
2023-11-06T15:00:28.438Z,77.57
2023-11-06T15:05:33.077Z,77.13
2023-11-06T15:10:36.671Z,77.23
2023-11-06T15:15:41.464Z,77.05
2023-11-06T15:20:45.535Z,76.75
2023-11-06T15:25:48.981Z,76.95
2023-11-06T15:30:52.928Z,76.76
2023-11-06T15:35:56.662Z,76.54
2023-11-06T15:41:05.964Z,76.43
2023-11-06T15:46:14.382Z,76.47
2023-11-06T15:51:24.023Z,76.41
2023-11-06T15:56:26.896Z,76.53
2023-11-06T16:01:31.313Z,76.16
2023-11-06T16:06:35.606Z,76.06
2023-11-06T16:11:42.213Z,75.85
2023-11-06T16:16:46.096Z,76.26
2023-11-06T16:21:49.722Z,76.07
2023-11-06T16:26:52.465Z,76.10
2023-11-06T16:31:57.744Z,75.97
2023-11-06T16:37:36.278Z,75.74
2023-11-06T16:42:39.759Z,76.17
2023-11-06T16:47:43.175Z,75.72
2023-11-06T16:52:46.211Z,76.16
2023-11-06T16:57:49.841Z,76.14
2023-11-06T17:02:53.825Z,76.47
2023-11-06T17:07:58.721Z,76.98
2023-11-06T17:13:01.408Z,77.19
2023-11-06T17:18:06.258Z,77.44
2023-11-06T17:23:09.027Z,77.32
2023-11-06T17:28:11.611Z,77.34
2023-11-06T17:33:14.322Z,77.83
2023-11-06T17:38:17.411Z,77.82
2023-11-06T17:43:20.442Z,78.49
2023-11-06T17:48:23.487Z,78.63
2023-11-06T17:53:26.925Z,79.06
2023-11-06T17:58:30.171Z,79.09
2023-11-06T18:03:33.153Z,79.12
2023-11-06T18:08:38.256Z,79.74
2023-11-06T18:13:45.139Z,79.41
2023-11-06T18:18:48.480Z,79.65
2023-11-06T18:23:51.196Z,79.81
2023-11-06T18:28:53.836Z,80.01
2023-11-06T18:33:56.720Z,79.88
2023-11-06T18:38:59.613Z,79.96
2023-11-06T18:44:02.276Z,80.07
2023-11-06T18:49:06.286Z,80.13
2023-11-06T18:54:08.955Z,80.21
2023-11-06T18:59:11.954Z,80.28
2023-11-06T19:04:14.607Z,80.62
2023-11-06T19:09:18.851Z,80.59
2023-11-06T19:14:22.270Z,80.50
2023-11-06T19:19:25.611Z,80.57
2023-11-06T19:24:28.194Z,80.52
2023-11-06T19:29:31.000Z,80.53
2023-11-06T19:34:33.779Z,80.54
2023-11-06T19:39:36.822Z,80.67
2023-11-06T19:44:39.456Z,80.73
2023-11-06T19:49:42.056Z,80.73
2023-11-06T19:54:44.910Z,80.72
2023-11-06T19:59:58.039Z,80.68
2023-11-06T20:05:16.519Z,80.73
2023-11-06T20:10:19.614Z,80.83
2023-11-06T20:15:22.301Z,80.51
2023-11-06T20:20:24.883Z,80.46
2023-11-06T20:25:27.944Z,80.68
2023-11-06T20:30:30.600Z,80.79
2023-11-06T20:35:33.326Z,80.88
2023-11-06T20:40:36.076Z,81.00
2023-11-06T20:45:38.744Z,80.86
2023-11-06T20:50:41.371Z,81.15
2023-11-06T20:55:44.076Z,80.93
2023-11-06T21:00:48.811Z,80.88
2023-11-06T21:05:51.384Z,80.58
2023-11-06T21:10:54.015Z,80.30
2023-11-06T21:15:57.552Z,80.30
2023-11-06T21:21:00.202Z,80.53
2023-11-06T21:26:03.785Z,80.62
2023-11-06T21:31:06.346Z,80.42
2023-11-06T21:36:09.459Z,80.19
2023-11-06T21:41:12.038Z,80.21
2023-11-06T21:46:14.814Z,80.17
2023-11-06T21:51:17.696Z,80.63
2023-11-06T21:56:20.419Z,80.84
2023-11-06T22:01:24.031Z,81.22
2023-11-06T22:06:26.905Z,80.73
2023-11-06T22:11:29.581Z,80.50
2023-11-06T22:16:32.237Z,80.49
2023-11-06T22:21:34.802Z,80.60
2023-11-06T22:26:37.509Z,80.36
2023-11-06T22:31:44.441Z,80.56
2023-11-06T22:36:47.281Z,80.70
2023-11-06T22:41:49.977Z,80.60
2023-11-06T22:46:53.062Z,80.22
2023-11-06T22:51:56.391Z,80.33
2023-11-06T22:56:59.018Z,80.65
2023-11-06T23:02:03.643Z,80.80
2023-11-06T23:07:06.708Z,80.63
2023-11-06T23:12:09.810Z,80.70
2023-11-06T23:17:12.570Z,80.64
2023-11-06T23:22:16.170Z,80.68
2023-11-06T23:27:21.200Z,80.75
2023-11-06T23:32:23.867Z,80.33
2023-11-06T23:37:26.461Z,80.35
2023-11-06T23:42:29.632Z,79.93
2023-11-06T23:47:32.481Z,79.91
2023-11-06T23:52:35.284Z,79.52
2023-11-06T23:57:38.089Z,79.39
